Time;durP1;ratioP1;P1;durP2;ratioP2;P2;SDS_P1;SDS_P2;PMS_P1;PMS_P2;Temp;Humidity;BMP_temperature;BMP_pressure;BME280_temperature;BME280_humidity;BME280_pressure;Samples;Min_cycle;Max_cycle;Signal;HPM_P1;HPM_P2
2021/06/26 00:00:24;;;;;;;2.72;1.00;;;24.00;42.60;;;;;;5023480;28;20416;-73
2021/06/26 00:02:49;;;;;;;2.65;1.10;;;24.00;42.80;;;;;;5019131;28;20574;-72
2021/06/26 00:05:15;;;;;;;2.97;0.95;;;24.00;42.60;;;;;;5017417;28;20081;-72
2021/06/26 00:07:41;;;;;;;2.60;0.75;;;23.90;43.00;;;;;;5013994;28;20434;-73
2021/06/26 00:10:08;;;;;;;1.58;0.77;;;23.90;43.70;;;;;;5014643;28;20037;-71
2021/06/26 00:12:33;;;;;;;1.75;1.08;;;23.80;43.90;;;;;;5014523;28;20034;-71
2021/06/26 00:14:59;;;;;;;2.13;1.00;;;23.60;44.50;;;;;;5014927;28;20040;-71
2021/06/26 00:17:25;;;;;;;1.20;0.82;;;23.70;44.40;;;;;;5021411;28;20048;-72
2021/06/26 00:19:51;;;;;;;4.18;1.42;;;23.80;44.50;;;;;;5019052;28;20390;-71
2021/06/26 00:22:16;;;;;;;5.32;1.20;;;23.70;44.70;;;;;;5021385;28;20088;-72
2021/06/26 00:24:43;;;;;;;2.50;1.35;;;23.60;44.90;;;;;;5017096;28;20107;-71
2021/06/26 00:27:08;;;;;;;1.52;1.15;;;23.50;45.50;;;;;;5023045;28;20403;-71
2021/06/26 00:29:34;;;;;;;2.42;1.23;;;23.50;45.30;;;;;;5012868;28;20093;-71
2021/06/26 00:31:59;;;;;;;3.88;1.75;;;23.70;45.20;;;;;;5023632;28;20033;-71
2021/06/26 00:34:25;;;;;;;3.95;1.38;;;23.70;45.40;;;;;;5012207;28;20049;-72
2021/06/26 00:36:51;;;;;;;3.28;1.33;;;23.70;45.20;;;;;;5018335;28;20038;-72
2021/06/26 00:39:16;;;;;;;2.10;1.23;;;23.70;45.10;;;;;;5010126;28;20403;-72
2021/06/26 00:41:42;;;;;;;3.10;1.33;;;23.80;45.20;;;;;;5016377;28;20034;-72
2021/06/26 00:44:09;;;;;;;5.68;1.40;;;23.80;45.60;;;;;;5019307;28;20052;-72
2021/06/26 00:46:35;;;;;;;2.15;1.33;;;23.70;45.60;;;;;;5007402;28;20044;-72
2021/06/26 00:49:02;;;;;;;3.45;1.30;;;23.70;45.40;;;;;;5015731;28;20049;-71
2021/06/26 00:51:28;;;;;;;1.85;1.40;;;23.70;45.30;;;;;;5018961;28;20034;-57
2021/06/26 00:53:54;;;;;;;3.85;1.63;;;23.80;45.60;;;;;;5017301;28;20525;-71
2021/06/26 00:56:20;;;;;;;2.15;1.60;;;23.80;45.40;;;;;;5007543;28;20109;-72
2021/06/26 00:58:46;;;;;;;2.75;1.45;;;23.70;45.70;;;;;;5016389;28;20081;-71
2021/06/26 01:01:13;;;;;;;2.65;1.27;;;23.80;45.80;;;;;;5031803;28;20041;-72
2021/06/26 01:03:39;;;;;;;2.67;1.30;;;23.80;45.80;;;;;;5005020;28;20042;-72
2021/06/26 01:06:04;;;;;;;2.17;1.23;;;23.80;46.20;;;;;;4989818;28;20075;-72
2021/06/26 01:08:31;;;;;;;2.90;1.40;;;23.70;46.90;;;;;;5001428;28;20097;-71
2021/06/26 01:10:57;;;;;;;2.85;1.10;;;23.70;46.40;;;;;;5015249;28;20042;-71
2021/06/26 01:13:23;;;;;;;2.28;1.13;;;23.80;46.90;;;;;;5023510;28;20045;-71
2021/06/26 01:15:52;;;;;;;2.33;1.10;;;23.60;47.00;;;;;;5008673;28;20083;-71
2021/06/26 01:18:18;;;;;;;3.60;1.10;;;23.70;47.10;;;;;;5012888;28;20096;-71
2021/06/26 01:20:44;;;;;;;2.28;1.30;;;23.60;47.10;;;;;;5010080;28;20057;-72
2021/06/26 01:23:13;;;;;;;2.70;1.10;;;23.70;47.50;;;;;;5009283;28;20056;-72
2021/06/26 01:25:38;;;;;;;2.35;1.50;;;23.60;47.60;;;;;;4997593;28;20081;-72
2021/06/26 01:28:04;;;;;;;3.33;1.65;;;23.60;47.60;;;;;;5022457;28;20076;-72
2021/06/26 01:30:33;;;;;;;2.40;1.58;;;23.60;47.70;;;;;;5021213;28;20034;-72
2021/06/26 01:32:59;;;;;;;1.83;1.10;;;23.50;48.50;;;;;;5015151;28;20483;-68
2021/06/26 01:35:25;;;;;;;2.67;1.10;;;23.60;48.20;;;;;;5014790;28;20051;-72
2021/06/26 01:37:51;;;;;;;1.48;1.10;;;23.60;48.00;;;;;;5023170;28;20065;-72
2021/06/26 01:40:21;;;;;;;1.38;1.13;;;23.60;47.80;;;;;;5006080;28;20484;-72
2021/06/26 01:42:48;;;;;;;3.20;1.00;;;23.60;48.00;;;;;;5000629;28;20126;-71
2021/06/26 01:45:15;;;;;;;3.17;1.20;;;23.50;48.00;;;;;;5010571;28;20038;-70
2021/06/26 01:47:52;;;;;;;3.17;1.02;;;23.60;48.30;;;;;;5008765;28;20033;-71
2021/06/26 01:50:20;;;;;;;2.78;0.82;;;23.50;48.70;;;;;;5021233;28;20037;-72
2021/06/26 01:52:46;;;;;;;1.15;1.05;;;23.40;48.60;;;;;;5017432;28;20045;-72
2021/06/26 01:55:14;;;;;;;5.90;1.60;;;23.50;48.50;;;;;;5016564;28;20041;-72
2021/06/26 01:57:43;;;;;;;1.83;1.13;;;23.50;48.40;;;;;;5013484;28;20072;-72
2021/06/26 02:00:10;;;;;;;3.58;1.23;;;23.50;48.80;;;;;;5020405;28;21243;-72
2021/06/26 02:02:36;;;;;;;3.03;1.20;;;23.50;48.50;;;;;;5020028;28;20049;-73
2021/06/26 02:05:04;;;;;;;1.30;1.20;;;23.50;48.80;;;;;;5024508;28;20539;-72
2021/06/26 02:07:30;;;;;;;5.05;1.55;;;23.50;48.80;;;;;;5015472;28;20505;-71
2021/06/26 02:09:55;;;;;;;4.82;1.85;;;23.50;49.00;;;;;;5017023;28;20048;-72
2021/06/26 02:12:21;;;;;;;3.65;1.58;;;23.50;49.10;;;;;;5011815;28;20037;-72
2021/06/26 02:14:46;;;;;;;4.20;1.48;;;23.40;49.20;;;;;;5017393;28;20053;-72
2021/06/26 02:17:12;;;;;;;4.13;1.20;;;23.40;49.30;;;;;;5003097;28;20064;-72
2021/06/26 02:19:41;;;;;;;2.60;1.10;;;23.40;49.60;;;;;;5016550;28;20095;-73
2021/06/26 02:22:06;;;;;;;2.20;1.27;;;23.40;50.70;;;;;;5020638;28;20098;-72
2021/06/26 02:24:32;;;;;;;2.10;1.08;;;23.30;50.30;;;;;;5026359;28;20384;-73
2021/06/26 02:26:58;;;;;;;3.78;1.30;;;23.40;50.40;;;;;;5017536;28;20099;-73
2021/06/26 02:29:23;;;;;;;3.03;1.40;;;23.30;50.70;;;;;;5024000;28;20033;-73
2021/06/26 02:31:49;;;;;;;4.63;1.25;;;23.40;50.80;;;;;;5020366;28;20044;-72
2021/06/26 02:34:15;;;;;;;3.08;0.90;;;23.40;50.60;;;;;;5016915;28;20488;-72
2021/06/26 02:36:41;;;;;;;2.10;1.38;;;23.30;50.60;;;;;;5019718;28;20034;-73
2021/06/26 02:39:08;;;;;;;3.22;1.27;;;23.30;51.00;;;;;;5021852;28;20089;-72
2021/06/26 02:41:33;;;;;;;2.70;1.42;;;23.30;50.80;;;;;;5012137;28;20080;-73
2021/06/26 02:43:59;;;;;;;1.92;1.13;;;23.30;50.90;;;;;;5023962;28;20069;-69
2021/06/26 02:46:24;;;;;;;2.20;1.00;;;23.30;51.00;;;;;;5024382;28;20057;-73
2021/06/26 02:48:50;;;;;;;1.30;1.10;;;23.30;51.10;;;;;;5008455;28;20361;-73
2021/06/26 02:51:15;;;;;;;3.10;0.90;;;23.30;51.10;;;;;;5021859;28;20046;-73
2021/06/26 02:53:41;;;;;;;2.75;1.10;;;23.30;51.70;;;;;;5015555;28;20121;-73
2021/06/26 02:56:07;;;;;;;2.83;0.90;;;23.20;51.20;;;;;;5024097;28;20068;-73
2021/06/26 02:58:32;;;;;;;1.25;1.08;;;23.20;51.30;;;;;;5035818;28;20041;-72
2021/06/26 03:00:58;;;;;;;2.50;1.30;;;23.30;51.10;;;;;;5019248;28;20122;-73
2021/06/26 03:03:24;;;;;;;2.35;1.13;;;23.20;51.30;;;;;;5015292;28;20090;-73
2021/06/26 03:05:50;;;;;;;5.07;1.45;;;23.10;51.30;;;;;;5018722;28;20422;-73
2021/06/26 03:08:15;;;;;;;2.67;1.55;;;23.30;51.30;;;;;;5020273;28;20168;-73
2021/06/26 03:10:41;;;;;;;2.50;1.52;;;23.20;51.40;;;;;;5010193;28;20034;-73
2021/06/26 03:13:07;;;;;;;2.35;1.23;;;23.10;51.50;;;;;;5013209;28;20509;-73
2021/06/26 03:15:32;;;;;;;2.40;1.13;;;23.10;51.50;;;;;;5017596;28;20045;-71
2021/06/26 03:17:58;;;;;;;3.38;1.10;;;23.10;51.60;;;;;;5022094;28;20073;-73
2021/06/26 03:20:24;;;;;;;4.25;1.52;;;23.00;51.80;;;;;;5010595;28;20039;-73
2021/06/26 03:22:49;;;;;;;2.75;0.93;;;23.10;52.30;;;;;;5019706;28;20048;-72
2021/06/26 03:25:15;;;;;;;2.65;1.13;;;23.10;51.60;;;;;;5019334;28;20085;-72
2021/06/26 03:27:41;;;;;;;3.17;1.45;;;23.10;51.10;;;;;;5017260;28;20403;-73
2021/06/26 03:30:08;;;;;;;1.67;0.93;;;23.10;50.90;;;;;;5018011;28;20041;-72
2021/06/26 03:32:34;;;;;;;1.20;1.10;;;23.20;50.70;;;;;;5018421;28;20061;-71
2021/06/26 03:35:00;;;;;;;3.30;1.05;;;23.10;50.50;;;;;;5022610;28;20491;-73
2021/06/26 03:37:26;;;;;;;1.35;1.10;;;23.10;50.40;;;;;;5024128;28;21577;-73
2021/06/26 03:39:52;;;;;;;1.75;1.27;;;23.20;50.60;;;;;;5020436;28;20034;-71
2021/06/26 03:42:17;;;;;;;4.43;1.27;;;23.00;50.30;;;;;;5020995;28;20057;-75
2021/06/26 03:44:43;;;;;;;4.88;1.48;;;23.00;50.40;;;;;;5020836;28;20045;-72
2021/06/26 03:47:09;;;;;;;1.80;1.13;;;23.00;50.40;;;;;;5013628;28;20042;-73
2021/06/26 03:49:37;;;;;;;1.98;0.93;;;23.10;50.40;;;;;;5002961;28;20513;-72
2021/06/26 03:52:04;;;;;;;1.88;1.35;;;23.10;50.60;;;;;;5003807;28;20053;-72
2021/06/26 03:54:29;;;;;;;2.28;1.10;;;23.10;50.60;;;;;;5007843;28;20037;-72
2021/06/26 03:56:55;;;;;;;4.88;1.30;;;23.10;50.30;;;;;;5018360;28;20467;-73
2021/06/26 03:59:21;;;;;;;1.90;0.70;;;23.10;50.50;;;;;;5013573;28;20058;-72
2021/06/26 04:01:47;;;;;;;2.15;0.80;;;23.10;50.30;;;;;;5016118;28;20494;-73
2021/06/26 04:04:12;;;;;;;1.60;0.98;;;23.10;50.30;;;;;;5035854;28;20038;-71
2021/06/26 04:06:38;;;;;;;1.73;1.20;;;23.00;50.30;;;;;;5019208;28;20048;-72
2021/06/26 04:09:04;;;;;;;2.00;1.42;;;23.10;50.20;;;;;;5019990;28;20045;-72
2021/06/26 04:11:30;;;;;;;2.70;1.17;;;23.10;50.10;;;;;;5016678;28;20567;-72
2021/06/26 04:13:55;;;;;;;2.70;1.20;;;23.10;50.10;;;;;;5018729;28;20046;-72
2021/06/26 04:16:21;;;;;;;2.65;0.95;;;23.00;50.20;;;;;;5017074;28;22072;-72
2021/06/26 04:18:47;;;;;;;1.48;0.93;;;23.00;50.20;;;;;;5013422;28;20037;-72
2021/06/26 04:21:12;;;;;;;2.13;0.80;;;23.00;50.10;;;;;;5020827;28;20076;-73
2021/06/26 04:23:38;;;;;;;1.48;1.13;;;23.00;49.70;;;;;;5014373;28;20411;-72
2021/06/26 04:26:04;;;;;;;1.38;1.15;;;23.00;49.70;;;;;;5016773;28;20574;-73
2021/06/26 04:28:29;;;;;;;3.50;0.98;;;23.00;49.80;;;;;;5019780;28;20040;-72
2021/06/26 04:30:55;;;;;;;1.88;1.40;;;23.10;49.90;;;;;;5022666;28;20038;-73
2021/06/26 04:33:21;;;;;;;2.50;1.40;;;23.00;49.50;;;;;;5018140;28;20490;-72
2021/06/26 04:35:47;;;;;;;1.80;1.25;;;23.00;49.20;;;;;;5018053;28;20209;-72
2021/06/26 04:38:12;;;;;;;4.45;1.70;;;23.00;49.10;;;;;;5004282;28;20038;-72
2021/06/26 04:40:38;;;;;;;3.13;2.22;;;23.10;49.30;;;;;;5029132;28;20456;-73
2021/06/26 04:43:04;;;;;;;4.50;2.15;;;23.10;49.20;;;;;;5011190;28;20108;-72
2021/06/26 04:45:30;;;;;;;3.95;1.70;;;23.20;49.20;;;;;;5023650;28;20095;-73
2021/06/26 04:48:00;;;;;;;2.85;1.55;;;23.20;48.90;;;;;;5029538;28;20384;-72
2021/06/26 04:50:26;;;;;;;5.18;2.10;;;23.10;48.80;;;;;;5019454;28;20080;-73
2021/06/26 04:52:52;;;;;;;2.63;1.63;;;23.10;49.50;;;;;;5016898;28;22085;-73
2021/06/26 04:55:18;;;;;;;4.57;1.60;;;23.20;49.10;;;;;;5019719;28;20648;-72
2021/06/26 04:57:44;;;;;;;2.45;1.73;;;23.10;48.90;;;;;;5016447;28;21135;-72
2021/06/26 05:00:12;;;;;;;4.03;1.55;;;23.20;49.20;;;;;;5011888;28;20066;-72
2021/06/26 05:02:38;;;;;;;2.08;1.42;;;23.20;48.90;;;;;;5004489;28;20583;-72
2021/06/26 05:05:04;;;;;;;1.92;1.40;;;23.30;48.80;;;;;;5005496;28;20117;-73
2021/06/26 05:07:30;;;;;;;1.83;1.35;;;23.20;48.70;;;;;;5029918;28;20029;-71
2021/06/26 05:09:56;;;;;;;1.98;1.73;;;23.20;48.40;;;;;;5014202;28;20100;-72
2021/06/26 05:12:22;;;;;;;3.55;2.28;;;23.20;48.60;;;;;;5016814;28;20353;-70
2021/06/26 05:14:47;;;;;;;1.58;1.33;;;23.30;48.70;;;;;;4999530;28;20043;-70
2021/06/26 05:17:13;;;;;;;4.43;1.60;;;23.30;48.80;;;;;;5015870;28;20034;-69
2021/06/26 05:19:38;;;;;;;1.95;1.73;;;23.30;48.90;;;;;;5016119;28;20483;-70
2021/06/26 05:22:04;;;;;;;1.80;1.30;;;23.30;48.80;;;;;;5003117;28;20074;-69
2021/06/26 05:24:30;;;;;;;2.53;1.10;;;23.20;48.70;;;;;;5003818;28;20038;-70
2021/06/26 05:26:55;;;;;;;2.33;1.92;;;23.30;48.50;;;;;;5018379;28;20858;-70
2021/06/26 05:29:21;;;;;;;3.22;1.85;;;23.30;48.90;;;;;;5013328;28;20045;-70
2021/06/26 05:31:47;;;;;;;3.38;1.67;;;23.40;48.80;;;;;;5022606;28;20384;-70
2021/06/26 05:34:12;;;;;;;2.55;2.00;;;23.40;48.70;;;;;;5016305;28;20120;-70
2021/06/26 05:36:38;;;;;;;3.50;1.92;;;23.40;48.40;;;;;;5021179;28;20121;-69
2021/06/26 05:39:04;;;;;;;5.18;2.00;;;23.40;48.50;;;;;;5014396;28;20042;-71
2021/06/26 05:41:30;;;;;;;3.75;2.22;;;23.40;48.50;;;;;;5009409;28;20053;-71
2021/06/26 05:43:55;;;;;;;3.67;1.83;;;23.50;48.30;;;;;;5024450;28;20091;-70
2021/06/26 05:46:21;;;;;;;3.95;1.95;;;23.40;48.50;;;;;;5015410;28;20121;-70
2021/06/26 05:48:47;;;;;;;4.63;2.70;;;23.50;48.30;;;;;;5019400;28;20437;-70
2021/06/26 05:51:16;;;;;;;3.80;1.80;;;23.60;48.30;;;;;;5014195;28;20451;-70
2021/06/26 05:53:43;;;;;;;3.40;1.73;;;23.50;48.00;;;;;;5011816;28;20042;-69
2021/06/26 05:56:08;;;;;;;4.57;2.22;;;23.60;48.10;;;;;;5023674;28;20483;-71
2021/06/26 05:58:36;;;;;;;3.10;2.00;;;23.50;48.10;;;;;;5021392;28;20045;-69
2021/06/26 06:01:04;;;;;;;3.15;1.58;;;23.50;48.00;;;;;;5013061;28;20486;-68
2021/06/26 06:03:30;;;;;;;3.72;1.52;;;23.50;48.40;;;;;;5009778;28;20487;-69
2021/06/26 06:05:55;;;;;;;3.10;1.73;;;23.60;48.20;;;;;;5013530;28;20037;-70
2021/06/26 06:08:21;;;;;;;4.47;1.48;;;23.60;48.10;;;;;;5018753;28;20403;-70
2021/06/26 06:10:47;;;;;;;2.22;1.55;;;23.70;48.40;;;;;;5015191;28;20475;-70
2021/06/26 06:13:14;;;;;;;3.78;1.55;;;23.70;48.10;;;;;;5027130;28;20087;-70
2021/06/26 06:15:42;;;;;;;5.22;1.67;;;23.80;48.40;;;;;;5020112;28;20045;-70
2021/06/26 06:18:08;;;;;;;3.33;1.70;;;23.80;48.40;;;;;;5019274;28;20037;-70
2021/06/26 06:20:33;;;;;;;1.20;1.10;;;23.70;48.30;;;;;;5018504;28;20061;-70
2021/06/26 06:22:59;;;;;;;3.10;1.05;;;23.80;48.10;;;;;;5034210;28;20492;-70
2021/06/26 06:25:25;;;;;;;1.98;1.00;;;23.80;47.90;;;;;;5008983;28;20125;-70
2021/06/26 06:27:51;;;;;;;2.88;1.27;;;23.90;47.50;;;;;;5021199;28;20095;-69
2021/06/26 06:30:16;;;;;;;3.05;1.00;;;23.80;46.50;;;;;;5023522;28;20180;-69
2021/06/26 06:32:42;;;;;;;5.88;1.05;;;23.90;47.00;;;;;;5012002;28;20403;-70
2021/06/26 06:35:09;;;;;;;1.92;1.00;;;24.00;47.00;;;;;;5002315;28;20080;-69
2021/06/26 06:37:35;;;;;;;2.70;1.30;;;24.10;46.30;;;;;;5003912;28;20046;-69
2021/06/26 06:40:01;;;;;;;3.63;1.10;;;24.00;44.80;;;;;;5033616;28;20033;-70
2021/06/26 06:42:27;;;;;;;5.47;1.30;;;24.00;45.10;;;;;;5019220;28;20180;-69
2021/06/26 06:44:53;;;;;;;4.20;1.00;;;24.10;44.70;;;;;;5009131;28;20489;-69
2021/06/26 06:47:18;;;;;;;3.53;1.00;;;24.10;44.70;;;;;;5014116;28;20076;-70
2021/06/26 06:49:44;;;;;;;1.15;0.90;;;24.10;44.30;;;;;;5030805;28;20171;-69
2021/06/26 06:52:10;;;;;;;2.05;1.20;;;24.20;44.30;;;;;;5023274;28;20076;-70
2021/06/26 06:54:36;;;;;;;2.47;0.80;;;24.30;44.20;;;;;;5023713;28;20129;-69
2021/06/26 06:57:01;;;;;;;0.95;0.80;;;24.40;44.20;;;;;;5025147;28;20120;-70
2021/06/26 06:59:27;;;;;;;2.33;0.85;;;24.40;44.10;;;;;;5019624;28;20037;-71
2021/06/26 07:01:52;;;;;;;0.93;0.68;;;24.40;43.90;;;;;;5023973;28;20045;-71
2021/06/26 07:04:18;;;;;;;3.08;1.23;;;24.30;44.30;;;;;;5016749;28;20064;-70
2021/06/26 07:06:44;;;;;;;1.67;0.90;;;24.30;43.70;;;;;;5018819;28;20111;-70
2021/06/26 07:09:10;;;;;;;3.92;1.27;;;24.40;43.60;;;;;;5011202;28;20119;-70
2021/06/26 07:11:35;;;;;;;1.92;0.82;;;24.40;42.70;;;;;;5019057;28;20061;-70
2021/06/26 07:14:01;;;;;;;2.70;0.98;;;24.50;42.80;;;;;;5018384;28;20049;-69
2021/06/26 07:16:26;;;;;;;1.55;0.43;;;24.70;42.50;;;;;;5022871;28;20124;-70
2021/06/26 07:18:52;;;;;;;2.30;1.10;;;24.70;42.60;;;;;;4998932;28;20505;-70
2021/06/26 07:21:18;;;;;;;1.52;1.17;;;24.80;41.40;;;;;;5019431;28;20043;-70
2021/06/26 07:23:43;;;;;;;3.33;0.90;;;24.80;41.60;;;;;;5019201;28;20042;-70
2021/06/26 07:26:09;;;;;;;0.95;0.95;;;24.70;41.20;;;;;;5026075;28;20077;-69
2021/06/26 07:28:34;;;;;;;1.65;1.48;;;24.70;41.30;;;;;;5021122;28;20036;-69
2021/06/26 07:31:00;;;;;;;5.57;1.20;;;24.80;41.60;;;;;;5022677;28;20044;-69
2021/06/26 07:33:26;;;;;;;5.43;1.80;;;24.90;41.60;;;;;;5022902;28;20042;-70
2021/06/26 07:35:51;;;;;;;1.17;1.02;;;25.00;41.50;;;;;;5018293;28;20056;-70
2021/06/26 07:38:17;;;;;;;1.15;1.05;;;25.00;40.60;;;;;;5021227;28;20047;-71
2021/06/26 07:40:43;;;;;;;3.47;1.05;;;25.00;40.80;;;;;;5019232;28;20168;-70
2021/06/26 07:43:08;;;;;;;2.50;1.20;;;25.00;41.00;;;;;;5018064;28;20080;-71
2021/06/26 07:45:34;;;;;;;2.83;1.33;;;25.00;41.00;;;;;;5017483;28;20049;-71
2021/06/26 07:48:00;;;;;;;4.28;1.77;;;25.10;41.40;;;;;;5021907;28;20035;-71
2021/06/26 07:50:25;;;;;;;4.60;1.60;;;25.20;40.90;;;;;;5001053;28;20038;-71
2021/06/26 07:52:51;;;;;;;2.60;1.10;;;25.30;41.20;;;;;;5017633;28;20423;-71
2021/06/26 07:55:16;;;;;;;2.33;1.30;;;25.20;40.80;;;;;;5020801;28;20522;-71
2021/06/26 07:57:42;;;;;;;2.70;0.90;;;25.30;40.60;;;;;;5019498;28;20402;-70
2021/06/26 08:00:08;;;;;;;2.97;0.90;;;25.30;40.70;;;;;;5011771;28;20045;-69
2021/06/26 08:02:35;;;;;;;1.33;0.98;;;25.40;40.30;;;;;;5002574;28;20503;-71
2021/06/26 08:05:00;;;;;;;6.68;1.35;;;25.50;40.50;;;;;;5018362;28;20053;-71
2021/06/26 08:07:26;;;;;;;3.65;0.85;;;25.50;40.50;;;;;;5020720;28;20069;-71
2021/06/26 08:09:51;;;;;;;0.95;0.95;;;25.50;40.70;;;;;;5002092;28;20044;-71
2021/06/26 08:12:18;;;;;;;0.70;0.70;;;25.40;40.70;;;;;;5011017;28;20044;-71
2021/06/26 08:14:44;;;;;;;1.70;1.25;;;25.50;39.00;;;;;;5021830;28;20116;-70
2021/06/26 08:17:13;;;;;;;3.75;0.90;;;25.70;39.00;;;;;;5016609;28;20038;-70
2021/06/26 08:19:39;;;;;;;2.03;0.85;;;25.80;38.70;;;;;;5020164;28;20129;-71
2021/06/26 08:22:05;;;;;;;0.88;0.88;;;25.80;38.70;;;;;;5008790;28;20128;-69
2021/06/26 08:24:31;;;;;;;2.30;0.93;;;25.90;38.50;;;;;;5014080;28;20092;-70
2021/06/26 08:26:57;;;;;;;1.40;1.20;;;25.90;38.50;;;;;;5013596;28;20041;-71
2021/06/26 08:29:23;;;;;;;1.77;0.95;;;25.80;38.60;;;;;;5025575;28;20580;-70
2021/06/26 08:31:48;;;;;;;1.55;0.95;;;25.80;38.90;;;;;;5015839;28;20034;-70
2021/06/26 08:34:14;;;;;;;4.07;1.00;;;25.90;38.70;;;;;;5014656;28;20038;-70
2021/06/26 08:36:39;;;;;;;1.60;0.80;;;25.90;38.90;;;;;;5014538;28;20052;-70
2021/06/26 08:39:05;;;;;;;1.25;0.75;;;26.00;38.90;;;;;;5034413;28;20125;-70
2021/06/26 08:41:38;;;;;;;2.05;1.30;;;26.10;39.10;;;;;;4994190;28;20618;-71
2021/06/26 08:44:05;;;;;;;2.20;0.85;;;26.20;39.30;;;;;;5019492;28;20042;-70
2021/06/26 08:46:32;;;;;;;2.85;1.00;;;26.30;39.40;;;;;;5020001;28;20044;-71
2021/06/26 08:48:58;;;;;;;4.03;1.55;;;26.40;39.10;;;;;;5019793;28;20049;-71
2021/06/26 08:51:24;;;;;;;4.78;1.55;;;26.50;38.70;;;;;;5018903;28;20483;-70
2021/06/26 08:53:50;;;;;;;4.40;1.13;;;26.40;38.60;;;;;;5016568;28;20434;-71
2021/06/26 08:56:15;;;;;;;2.40;0.98;;;26.50;39.20;;;;;;5018860;28;20080;-70
2021/06/26 08:58:41;;;;;;;2.58;1.58;;;26.60;39.00;;;;;;5004268;28;20034;-71
2021/06/26 09:01:07;;;;;;;3.58;1.30;;;26.60;39.10;;;;;;5019432;28;20068;-70
2021/06/26 09:03:32;;;;;;;6.00;1.48;;;26.70;39.10;;;;;;5004821;28;20096;-70
2021/06/26 09:06:03;;;;;;;2.10;1.10;;;26.70;38.70;;;;;;5024740;28;20053;-71
2021/06/26 09:08:29;;;;;;;5.45;1.20;;;26.80;38.50;;;;;;5007651;28;20034;-71
2021/06/26 09:10:55;;;;;;;1.75;1.00;;;26.80;38.80;;;;;;5015070;28;20056;-71
2021/06/26 09:13:26;;;;;;;3.17;1.17;;;27.10;38.40;;;;;;5008710;28;20120;-71
2021/06/26 09:16:12;;;;;;;2.10;1.30;;;27.10;37.90;;;;;;5021876;28;20435;-71
2021/06/26 09:18:50;;;;;;;1.60;1.00;;;27.10;37.70;;;;;;5011138;28;20368;-70
2021/06/26 09:21:30;;;;;;;2.30;1.08;;;26.90;37.80;;;;;;5014152;28;20483;-71
2021/06/26 09:24:05;;;;;;;1.38;1.20;;;27.00;37.80;;;;;;5016377;28;20458;-71
2021/06/26 09:26:35;;;;;;;3.65;1.42;;;27.10;37.40;;;;;;5004104;28;20090;-71
2021/06/26 09:29:14;;;;;;;2.13;1.23;;;27.10;37.50;;;;;;5014292;28;20103;-71
2021/06/26 09:31:53;;;;;;;2.10;1.30;;;27.10;37.50;;;;;;4982042;28;20029;-71
2021/06/26 09:34:24;;;;;;;3.45;1.33;;;27.10;37.20;;;;;;5017535;28;20529;-71
2021/06/26 09:37:04;;;;;;;2.70;0.85;;;27.00;37.50;;;;;;5020627;28;20041;-70
2021/06/26 09:39:40;;;;;;;2.17;1.00;;;27.00;37.10;;;;;;5020242;28;20042;-71
2021/06/26 09:42:14;;;;;;;3.25;1.27;;;27.20;37.10;;;;;;5023300;28;20115;-69
2021/06/26 09:44:51;;;;;;;2.92;1.20;;;27.20;37.00;;;;;;5020749;28;20096;-70
2021/06/26 09:47:32;;;;;;;2.15;1.08;;;27.40;36.60;;;;;;5023260;28;20149;-70
2021/06/26 09:50:18;;;;;;;2.05;1.15;;;27.50;36.50;;;;;;5023703;28;20368;-70
2021/06/26 09:52:46;;;;;;;2.20;1.10;;;27.60;36.70;;;;;;4986651;28;20053;-70
2021/06/26 09:55:32;;;;;;;2.83;1.15;;;27.70;36.20;;;;;;5022049;28;20032;-70
2021/06/26 09:58:00;;;;;;;3.42;1.15;;;27.60;35.50;;;;;;5021795;28;20072;-71
2021/06/26 10:00:28;;;;;;;1.88;0.98;;;27.70;36.20;;;;;;5015336;28;20053;-71
2021/06/26 10:02:55;;;;;;;2.58;1.40;;;27.90;35.80;;;;;;5021063;28;20081;-71
2021/06/26 10:05:20;;;;;;;3.63;1.40;;;28.10;35.60;;;;;;5020437;28;20094;-70
2021/06/26 10:07:48;;;;;;;1.25;1.10;;;27.90;35.10;;;;;;5021584;28;20068;-70
2021/06/26 10:10:16;;;;;;;2.97;1.00;;;28.00;35.30;;;;;;5022714;28;20041;-70
2021/06/26 10:12:42;;;;;;;3.75;1.73;;;28.30;34.80;;;;;;5021908;28;20033;-70
2021/06/26 10:15:10;;;;;;;1.25;1.15;;;28.50;34.40;;;;;;5020322;28;20124;-71
2021/06/26 10:17:36;;;;;;;1.85;1.02;;;28.50;34.40;;;;;;5020930;28;20037;-70
2021/06/26 10:20:05;;;;;;;4.03;1.58;;;28.40;34.10;;;;;;5012783;28;20033;-70
2021/06/26 10:22:38;;;;;;;3.47;1.38;;;28.40;33.90;;;;;;5017339;28;20555;-70
2021/06/26 10:25:08;;;;;;;2.00;1.27;;;28.50;34.10;;;;;;5016261;28;20038;-66
2021/06/26 10:27:34;;;;;;;2.00;1.23;;;28.60;33.80;;;;;;5018697;28;20044;-71
2021/06/26 10:30:09;;;;;;;5.72;1.60;;;28.70;33.70;;;;;;5020438;28;20041;-71
2021/06/26 10:32:35;;;;;;;1.10;1.00;;;28.80;32.90;;;;;;5018159;28;20042;-70
2021/06/26 10:35:14;;;;;;;2.03;1.25;;;28.80;33.70;;;;;;5010553;28;20071;-70
2021/06/26 10:37:40;;;;;;;2.97;1.98;;;28.80;32.90;;;;;;4994396;28;20146;-70
2021/06/26 10:40:09;;;;;;;3.30;1.60;;;28.90;33.30;;;;;;5022425;28;20042;-69
2021/06/26 10:42:38;;;;;;;2.60;1.60;;;29.00;32.80;;;;;;5012420;28;20202;-70
2021/06/26 10:45:06;;;;;;;1.30;1.02;;;28.90;33.10;;;;;;5020833;28;20094;-70
2021/06/26 10:47:32;;;;;;;2.75;1.35;;;29.00;33.60;;;;;;5025217;28;20443;-71
2021/06/26 10:50:18;;;;;;;2.08;1.40;;;29.60;32.60;;;;;;5021606;28;20124;-70
2021/06/26 10:52:57;;;;;;;1.70;1.25;;;29.80;32.30;;;;;;4988790;28;20124;-70
2021/06/26 10:55:34;;;;;;;3.13;1.63;;;30.10;31.50;;;;;;5023921;28;20041;-70
2021/06/26 10:58:04;;;;;;;2.78;1.38;;;30.50;30.40;;;;;;5016402;28;20107;-70
2021/06/26 11:00:39;;;;;;;4.40;1.50;;;31.70;29.10;;;;;;5018277;28;20468;-70
2021/06/26 11:03:06;;;;;;;2.88;1.48;;;33.40;27.70;;;;;;5004728;28;20046;-68
2021/06/26 11:05:35;;;;;;;4.18;1.45;;;34.80;26.60;;;;;;5022755;28;20414;-70
2021/06/26 11:08:12;;;;;;;2.58;1.20;;;35.80;25.60;;;;;;5015435;28;20025;-70
2021/06/26 11:10:37;;;;;;;2.90;1.35;;;36.50;24.40;;;;;;5015354;28;20043;-69
2021/06/26 11:13:03;;;;;;;1.83;1.73;;;37.90;30.00;;;;;;5015729;28;20044;-69
2021/06/26 11:15:31;;;;;;;1.60;1.50;;;38.10;26.90;;;;;;5020419;28;20658;-69
2021/06/26 11:17:57;;;;;;;3.67;2.10;;;37.40;23.10;;;;;;5022896;28;20505;-69
2021/06/26 11:20:24;;;;;;;6.38;1.92;;;37.00;23.80;;;;;;5024169;28;20716;-69
2021/06/26 11:22:57;;;;;;;2.58;2.13;;;36.10;24.60;;;;;;5012814;28;20530;-70
2021/06/26 11:25:27;;;;;;;2.10;1.70;;;35.50;24.70;;;;;;5023417;28;20061;-70
2021/06/26 11:28:07;;;;;;;3.55;2.03;;;35.00;24.90;;;;;;5019914;28;20503;-72
2021/06/26 11:30:34;;;;;;;5.50;2.00;;;34.70;25.30;;;;;;5025298;28;20446;-71
2021/06/26 11:33:00;;;;;;;6.18;2.25;;;34.70;25.60;;;;;;5014053;28;20034;-71
2021/06/26 11:35:37;;;;;;;10.18;2.70;;;34.30;26.00;;;;;;5019069;28;20391;-70
2021/06/26 11:38:04;;;;;;;2.88;1.60;;;34.20;25.50;;;;;;5022749;28;20038;-70
2021/06/26 11:40:32;;;;;;;2.13;1.88;;;34.70;25.40;;;;;;5013521;28;20066;-70
2021/06/26 11:43:02;;;;;;;2.33;1.77;;;34.40;25.50;;;;;;4995522;28;20051;-69
2021/06/26 11:45:30;;;;;;;4.35;2.10;;;33.70;26.00;;;;;;5008501;28;20038;-70
2021/06/26 11:48:08;;;;;;;2.00;1.85;;;33.70;26.20;;;;;;5022674;28;20041;-69
2021/06/26 11:50:36;;;;;;;2.08;1.60;;;33.70;25.90;;;;;;5016105;28;20053;-70
2021/06/26 11:53:09;;;;;;;2.70;2.13;;;34.30;26.10;;;;;;5018433;28;20391;-70
2021/06/26 11:55:39;;;;;;;4.80;2.03;;;34.60;25.40;;;;;;5016419;28;20097;-69
2021/06/26 11:58:05;;;;;;;1.92;1.83;;;34.80;25.10;;;;;;5023390;28;20151;-69
2021/06/26 12:00:31;;;;;;;6.75;2.15;;;35.00;25.00;;;;;;5016072;28;20486;-70
2021/06/26 12:02:56;;;;;;;3.42;2.05;;;35.00;24.90;;;;;;5020746;28;20044;-71
2021/06/26 12:05:22;;;;;;;6.07;2.38;;;35.80;24.30;;;;;;5012595;28;20119;-71
2021/06/26 12:07:50;;;;;;;2.53;1.80;;;36.30;23.20;;;;;;5020146;28;20491;-71
2021/06/26 12:10:16;;;;;;;3.63;1.83;;;;;;;;;;5006727;28;20038;-71
2021/06/26 12:12:42;;;;;;;4.65;2.10;;;37.50;50.20;;;;;;5012633;28;20130;-71
2021/06/26 12:15:11;;;;;;;3.53;2.03;;;37.70;23.30;;;;;;5015512;28;20153;-72
2021/06/26 12:17:37;;;;;;;4.18;2.25;;;37.90;22.40;;;;;;5012240;28;20126;-71
2021/06/26 12:20:08;;;;;;;2.58;2.17;;;38.50;22.50;;;;;;5019861;28;20479;-71
2021/06/26 12:22:34;;;;;;;3.15;1.58;;;38.20;21.30;;;;;;5015000;28;20047;-56
2021/06/26 12:25:06;;;;;;;1.92;1.83;;;37.80;20.60;;;;;;5017595;28;20038;-70
2021/06/26 12:27:32;;;;;;;2.30;2.00;;;38.30;20.60;;;;;;5013880;28;20042;-70
2021/06/26 12:30:00;;;;;;;6.68;2.60;;;38.30;22.00;;;;;;5012929;28;20556;-71
2021/06/26 12:32:28;;;;;;;3.17;2.22;;;38.10;22.40;;;;;;5014078;28;20103;-71
2021/06/26 12:34:54;;;;;;;3.33;1.95;;;38.00;22.20;;;;;;5013635;28;20328;-72
2021/06/26 12:37:34;;;;;;;2.42;2.05;;;38.60;21.90;;;;;;5012312;28;20120;-71
2021/06/26 12:40:31;;;;;;;2.63;2.42;;;39.10;21.00;;;;;;5025755;28;20041;-72
2021/06/26 12:43:14;;;;;;;2.80;2.00;;;38.70;20.80;;;;;;4992452;28;20136;-72
2021/06/26 12:45:51;;;;;;;2.40;2.20;;;36.80;22.10;;;;;;4995828;28;20065;-71
2021/06/26 12:48:29;;;;;;;2.42;2.20;;;35.40;23.40;;;;;;5018870;28;20067;-72